sensor_id;sensor_type;location;lat;lon;timestamp;pressure;altitude;pressure_sealevel;temperature;humidity
16595;BME280;8410;52.532;13.336;2023-05-10T00:00:48;100786.31;;;15.97;54.35
16595;BME280;8410;52.532;13.336;2023-05-10T00:03:15;100774.22;;;15.94;54.91
16595;BME280;8410;52.532;13.336;2023-05-10T00:05:44;100777.53;;;16.08;53.66
16595;BME280;8410;52.532;13.336;2023-05-10T00:08:11;100774.09;;;16.08;54.46
16595;BME280;8410;52.532;13.336;2023-05-10T00:10:39;100782.00;;;15.93;53.96
16595;BME280;8410;52.532;13.336;2023-05-10T00:13:07;100770.88;;;15.81;55.41
16595;BME280;8410;52.532;13.336;2023-05-10T00:15:34;100776.16;;;15.71;54.96
16595;BME280;8410;52.532;13.336;2023-05-10T00:18:02;100768.63;;;15.31;55.75
16595;BME280;8410;52.532;13.336;2023-05-10T00:20:29;100769.19;;;15.74;55.10
16595;BME280;8410;52.532;13.336;2023-05-10T00:22:58;100766.09;;;15.21;56.29
16595;BME280;8410;52.532;13.336;2023-05-10T00:25:25;100759.84;;;15.50;55.96
16595;BME280;8410;52.532;13.336;2023-05-10T00:27:53;100752.88;;;15.55;55.44
16595;BME280;8410;52.532;13.336;2023-05-10T00:30:21;100756.38;;;15.51;56.22
16595;BME280;8410;52.532;13.336;2023-05-10T00:32:48;100751.19;;;15.51;55.15
16595;BME280;8410;52.532;13.336;2023-05-10T00:35:17;100751.53;;;15.00;56.91
16595;BME280;8410;52.532;13.336;2023-05-10T00:37:45;100751.56;;;14.96;56.90
16595;BME280;8410;52.532;13.336;2023-05-10T00:40:14;100747.25;;;14.95;57.38
16595;BME280;8410;52.532;13.336;2023-05-10T00:42:42;100745.22;;;15.37;56.09
16595;BME280;8410;52.532;13.336;2023-05-10T00:45:09;100739.34;;;15.15;56.97
16595;BME280;8410;52.532;13.336;2023-05-10T00:47:38;100750.59;;;15.12;56.43
16595;BME280;8410;52.532;13.336;2023-05-10T00:50:06;100738.53;;;15.08;57.21
16595;BME280;8410;52.532;13.336;2023-05-10T00:52:35;100739.59;;;14.73;57.78
16595;BME280;8410;52.532;13.336;2023-05-10T00:55:03;100743.91;;;14.68;58.10
16595;BME280;8410;52.532;13.336;2023-05-10T00:57:33;100735.84;;;15.24;56.59
16595;BME280;8410;52.532;13.336;2023-05-10T01:00:01;100738.31;;;15.39;56.72
16595;BME280;8410;52.532;13.336;2023-05-10T01:02:29;100735.13;;;15.00;57.10
16595;BME280;8410;52.532;13.336;2023-05-10T01:04:56;100738.66;;;14.87;57.42
16595;BME280;8410;52.532;13.336;2023-05-10T01:07:24;100731.03;;;14.39;58.47
16595;BME280;8410;52.532;13.336;2023-05-10T01:09:51;100733.44;;;14.94;57.89
16595;BME280;8410;52.532;13.336;2023-05-10T01:12:19;100726.56;;;14.84;57.96
16595;BME280;8410;52.532;13.336;2023-05-10T01:14:48;100722.97;;;15.08;56.48
16595;BME280;8410;52.532;13.336;2023-05-10T01:17:16;100729.88;;;15.09;56.68
16595;BME280;8410;52.532;13.336;2023-05-10T01:19:43;100721.44;;;14.73;58.25
16595;BME280;8410;52.532;13.336;2023-05-10T01:22:25;100723.22;;;14.59;58.00
16595;BME280;8410;52.532;13.336;2023-05-10T01:25:29;100718.00;;;14.68;57.38
16595;BME280;8410;52.532;13.336;2023-05-10T01:28:16;100719.94;;;14.02;59.84
16595;BME280;8410;52.532;13.336;2023-05-10T01:31:06;100718.06;;;14.47;59.16
16595;BME280;8410;52.532;13.336;2023-05-10T01:33:39;100718.91;;;14.56;58.75
16595;BME280;8410;52.532;13.336;2023-05-10T01:36:13;100718.91;;;14.56;58.46
16595;BME280;8410;52.532;13.336;2023-05-10T01:38:47;100715.19;;;15.07;57.32
16595;BME280;8410;52.532;13.336;2023-05-10T01:41:18;100704.88;;;15.00;57.08
16595;BME280;8410;52.532;13.336;2023-05-10T01:43:53;100713.66;;;14.72;57.76
16595;BME280;8410;52.532;13.336;2023-05-10T01:46:27;100721.66;;;13.98;60.13
16595;BME280;8410;52.532;13.336;2023-05-10T01:48:58;100703.34;;;14.66;58.92
16595;BME280;8410;52.532;13.336;2023-05-10T01:54:17;100712.09;;;14.26;59.36
16595;BME280;8410;52.532;13.336;2023-05-10T01:56:48;100709.38;;;14.66;58.79
16595;BME280;8410;52.532;13.336;2023-05-10T01:59:19;100704.97;;;14.82;57.61
16595;BME280;8410;52.532;13.336;2023-05-10T02:01:48;100702.50;;;14.56;58.70
16595;BME280;8410;52.532;13.336;2023-05-10T02:04:21;100711.09;;;14.67;57.82
16595;BME280;8410;52.532;13.336;2023-05-10T02:06:51;100701.44;;;14.97;57.99
16595;BME280;8410;52.532;13.336;2023-05-10T02:09:21;100706.88;;;14.37;59.43
16595;BME280;8410;52.532;13.336;2023-05-10T02:11:50;100709.44;;;14.52;59.00
16595;BME280;8410;52.532;13.336;2023-05-10T02:14:18;100707.72;;;14.47;58.81
16595;BME280;8410;52.532;13.336;2023-05-10T02:16:47;100703.28;;;14.76;58.65
16595;BME280;8410;52.532;13.336;2023-05-10T02:19:20;100697.34;;;14.47;58.75
16595;BME280;8410;52.532;13.336;2023-05-10T02:21:50;100705.13;;;14.54;59.13
16595;BME280;8410;52.532;13.336;2023-05-10T02:24:19;100704.34;;;14.20;59.61
16595;BME280;8410;52.532;13.336;2023-05-10T02:26:48;100699.16;;;14.20;59.82
16595;BME280;8410;52.532;13.336;2023-05-10T02:29:18;100692.19;;;14.38;59.28
16595;BME280;8410;52.532;13.336;2023-05-10T02:31:46;100694.84;;;14.25;59.80
16595;BME280;8410;52.532;13.336;2023-05-10T02:34:14;100691.34;;;14.34;59.36
16595;BME280;8410;52.532;13.336;2023-05-10T02:36:44;100693.03;;;14.49;59.61
16595;BME280;8410;52.532;13.336;2023-05-10T02:39:13;100704.34;;;14.20;60.11
16595;BME280;8410;52.532;13.336;2023-05-10T02:41:42;100692.25;;;14.28;59.67
16595;BME280;8410;52.532;13.336;2023-05-10T02:44:11;100688.69;;;14.51;59.13
16595;BME280;8410;52.532;13.336;2023-05-10T02:46:41;100701.66;;;14.52;58.67
16595;BME280;8410;52.532;13.336;2023-05-10T02:49:09;100684.44;;;14.39;59.28
16595;BME280;8410;52.532;13.336;2023-05-10T02:51:41;100687.03;;;14.31;59.94
16595;BME280;8410;52.532;13.336;2023-05-10T02:54:13;100690.50;;;14.30;59.83
16595;BME280;8410;52.532;13.336;2023-05-10T02:56:47;100695.81;;;13.90;60.15
16595;BME280;8410;52.532;13.336;2023-05-10T02:59:16;100696.66;;;13.94;60.87
16595;BME280;8410;52.532;13.336;2023-05-10T03:01:44;100693.03;;;14.49;59.55
16595;BME280;8410;52.532;13.336;2023-05-10T03:04:11;100702.72;;;13.58;61.15
16595;BME280;8410;52.532;13.336;2023-05-10T03:06:39;100699.25;;;13.80;61.65
16595;BME280;8410;52.532;13.336;2023-05-10T03:09:07;100699.16;;;14.23;60.17
16595;BME280;8410;52.532;13.336;2023-05-10T03:11:45;100707.91;;;13.64;61.15
16595;BME280;8410;52.532;13.336;2023-05-10T03:14:21;100704.47;;;13.31;62.98
16595;BME280;8410;52.532;13.336;2023-05-10T03:16:56;100703.59;;;13.38;62.05
16595;BME280;8410;52.532;13.336;2023-05-10T03:19:27;100694.09;;;13.73;60.86
16595;BME280;8410;52.532;13.336;2023-05-10T03:21:59;100693.16;;;14.17;59.69
16595;BME280;8410;52.532;13.336;2023-05-10T03:24:32;100688.91;;;13.86;60.59
16595;BME280;8410;52.532;13.336;2023-05-10T03:27:03;100685.38;;;14.06;59.81
16595;BME280;8410;52.532;13.336;2023-05-10T03:29:31;100685.34;;;14.24;59.56
16595;BME280;8410;52.532;13.336;2023-05-10T03:31:59;100686.28;;;13.94;60.62
16595;BME280;8410;52.532;13.336;2023-05-10T03:34:29;100691.50;;;13.13;62.37
16595;BME280;8410;52.532;13.336;2023-05-10T03:36:57;100687.13;;;14.10;60.09
16595;BME280;8410;52.532;13.336;2023-05-10T03:39:24;100681.97;;;13.98;60.38
16595;BME280;8410;52.532;13.336;2023-05-10T03:41:52;100681.97;;;14.04;59.70
16595;BME280;8410;52.532;13.336;2023-05-10T03:44:21;100682.69;;;14.44;59.35
16595;BME280;8410;52.532;13.336;2023-05-10T03:46:48;100680.22;;;14.09;59.62
16595;BME280;8410;52.532;13.336;2023-05-10T03:49:15;100681.13;;;13.93;60.35
16595;BME280;8410;52.532;13.336;2023-05-10T03:51:43;100676.78;;;13.98;59.88
16595;BME280;8410;52.532;13.336;2023-05-10T03:54:10;100685.47;;;13.60;60.94
16595;BME280;8410;52.532;13.336;2023-05-10T03:56:38;100687.19;;;13.58;60.58
16595;BME280;8410;52.532;13.336;2023-05-10T03:59:05;100671.53;;;14.28;59.65
16595;BME280;8410;52.532;13.336;2023-05-10T04:01:36;100674.00;;;14.61;59.10
16595;BME280;8410;52.532;13.336;2023-05-10T04:04:03;100674.88;;;14.52;59.09
16595;BME280;8410;52.532;13.336;2023-05-10T04:06:31;100678.09;;;15.00;58.16
16595;BME280;8410;52.532;13.336;2023-05-10T04:08:59;100676.69;;;14.36;58.75
16595;BME280;8410;52.532;13.336;2023-05-10T04:11:30;100668.66;;;14.85;57.97
16595;BME280;8410;52.532;13.336;2023-05-10T04:13:57;100671.91;;;15.16;57.58
16595;BME280;8410;52.532;13.336;2023-05-10T04:16:25;100673.78;;;14.97;57.79
16595;BME280;8410;52.532;13.336;2023-05-10T04:18:53;100670.25;;;15.06;57.43
16595;BME280;8410;52.532;13.336;2023-05-10T04:21:21;100657.50;;;15.83;55.36
16595;BME280;8410;52.532;13.336;2023-05-10T04:23:48;100667.41;;;15.40;55.91
16595;BME280;8410;52.532;13.336;2023-05-10T04:26:16;100667.25;;;15.58;56.41
16595;BME280;8410;52.532;13.336;2023-05-10T04:28:43;100670.88;;;15.39;55.90
16595;BME280;8410;52.532;13.336;2023-05-10T04:31:11;100664.44;;;14.67;57.88
16595;BME280;8410;52.532;13.336;2023-05-10T04:33:38;100665.72;;;15.34;55.84
16595;BME280;8410;52.532;13.336;2023-05-10T04:36:08;100662.63;;;14.85;57.69
16595;BME280;8410;52.532;13.336;2023-05-10T04:38:35;100664.19;;;15.07;57.06
16595;BME280;8410;52.532;13.336;2023-05-10T04:41:06;100653.28;;;15.75;55.61
16595;BME280;8410;52.532;13.336;2023-05-10T04:43:36;100642.97;;;15.61;55.51
16595;BME280;8410;52.532;13.336;2023-05-10T04:46:03;100653.00;;;15.04;56.54
16595;BME280;8410;52.532;13.336;2023-05-10T04:48:31;100653.94;;;15.92;55.17
16595;BME280;8410;52.532;13.336;2023-05-10T04:50:58;100649.50;;;16.03;55.03
16595;BME280;8410;52.532;13.336;2023-05-10T04:53:27;100640.38;;;15.61;55.51
16595;BME280;8410;52.532;13.336;2023-05-10T04:55:55;100643.41;;;15.16;56.57
16595;BME280;8410;52.532;13.336;2023-05-10T04:58:22;100644.16;;;15.29;56.74
16595;BME280;8410;52.532;13.336;2023-05-10T05:00:49;100653.47;;;15.50;56.03
16595;BME280;8410;52.532;13.336;2023-05-10T05:03:17;100660.19;;;14.59;57.91
16595;BME280;8410;52.532;13.336;2023-05-10T05:05:45;100659.53;;;15.51;56.26
16595;BME280;8410;52.532;13.336;2023-05-10T05:08:12;100656.34;;;15.18;56.92
16595;BME280;8410;52.532;13.336;2023-05-10T05:10:41;100660.03;;;14.85;57.62
16595;BME280;8410;52.532;13.336;2023-05-10T05:13:08;100658.00;;;15.30;56.31
16595;BME280;8410;52.532;13.336;2023-05-10T05:15:36;100652.47;;;15.63;55.66
16595;BME280;8410;52.532;13.336;2023-05-10T05:18:03;100653.56;;;15.41;55.70
16595;BME280;8410;52.532;13.336;2023-05-10T05:20:32;100640.69;;;16.17;55.16
16595;BME280;8410;52.532;13.336;2023-05-10T05:22:59;100642.84;;;16.50;54.20
16595;BME280;8410;52.532;13.336;2023-05-10T05:25:27;100640.09;;;17.20;52.18
16595;BME280;8410;52.532;13.336;2023-05-10T05:27:55;100622.91;;;20.51;45.73
16595;BME280;8410;52.532;13.336;2023-05-10T05:30:23;100604.53;;;23.60;40.16
16595;BME280;8410;52.532;13.336;2023-05-10T05:32:50;100606.75;;;23.89;38.68
16595;BME280;8410;52.532;13.336;2023-05-10T05:35:18;100617.16;;;21.72;40.96
16595;BME280;8410;52.532;13.336;2023-05-10T05:37:46;100625.41;;;19.94;44.92
16595;BME280;8410;52.532;13.336;2023-05-10T05:40:13;100623.47;;;19.70;46.37
16595;BME280;8410;52.532;13.336;2023-05-10T05:42:41;100623.84;;;18.45;48.57
16595;BME280;8410;52.532;13.336;2023-05-10T05:45:11;100626.94;;;18.22;49.52
16595;BME280;8410;52.532;13.336;2023-05-10T05:47:40;100628.34;;;17.49;50.08
16595;BME280;8410;52.532;13.336;2023-05-10T05:50:08;100632.41;;;17.63;51.37
16595;BME280;8410;52.532;13.336;2023-05-10T05:52:36;100627.38;;;18.43;49.69
16595;BME280;8410;52.532;13.336;2023-05-10T05:55:04;100621.16;;;18.50;49.46
16595;BME280;8410;52.532;13.336;2023-05-10T05:57:32;100607.63;;;19.76;46.79
16595;BME280;8410;52.532;13.336;2023-05-10T06:00:00;100593.72;;;22.16;41.83
16595;BME280;8410;52.532;13.336;2023-05-10T06:02:30;100601.59;;;22.62;41.17
16595;BME280;8410;52.532;13.336;2023-05-10T06:04:57;100598.84;;;22.43;41.99
16595;BME280;8410;52.532;13.336;2023-05-10T06:07:25;100603.59;;;22.55;40.90
16595;BME280;8410;52.532;13.336;2023-05-10T06:09:52;100604.56;;;23.19;39.86
16595;BME280;8410;52.532;13.336;2023-05-10T06:12:20;100597.41;;;24.40;39.57
16595;BME280;8410;52.532;13.336;2023-05-10T06:14:47;100605.34;;;21.86;41.25
16595;BME280;8410;52.532;13.336;2023-05-10T06:17:14;100617.13;;;20.69;44.51
16595;BME280;8410;52.532;13.336;2023-05-10T06:19:43;100623.78;;;18.48;48.50
16595;BME280;8410;52.532;13.336;2023-05-10T06:22:11;100632.44;;;18.49;48.48
16595;BME280;8410;52.532;13.336;2023-05-10T06:24:38;100632.66;;;18.40;49.70
16595;BME280;8410;52.532;13.336;2023-05-10T06:27:06;100638.91;;;17.39;51.84
16595;BME280;8410;52.532;13.336;2023-05-10T06:29:33;100626.53;;;18.81;50.31
16595;BME280;8410;52.532;13.336;2023-05-10T06:32:00;100618.03;;;20.95;45.52
16595;BME280;8410;52.532;13.336;2023-05-10T06:34:28;100623.16;;;20.41;46.16
16595;BME280;8410;52.532;13.336;2023-05-10T06:36:57;100617.53;;;21.10;44.46
16595;BME280;8410;52.532;13.336;2023-05-10T06:39:27;100607.13;;;20.54;46.13
16595;BME280;8410;52.532;13.336;2023-05-10T06:41:55;100628.59;;;19.04;48.58
16595;BME280;8410;52.532;13.336;2023-05-10T06:44:23;100621.31;;;18.81;50.28
16595;BME280;8410;52.532;13.336;2023-05-10T06:46:50;100626.72;;;18.72;50.11
16595;BME280;8410;52.532;13.336;2023-05-10T06:49:19;100632.50;;;18.07;50.68
16595;BME280;8410;52.532;13.336;2023-05-10T06:51:47;100624.47;;;18.16;51.96
16595;BME280;8410;52.532;13.336;2023-05-10T06:54:15;100626.88;;;17.82;52.24
16595;BME280;8410;52.532;13.336;2023-05-10T06:56:44;100634.75;;;17.79;52.94
16595;BME280;8410;52.532;13.336;2023-05-10T06:59:11;100624.06;;;17.93;52.31
16595;BME280;8410;52.532;13.336;2023-05-10T07:01:42;100629.56;;;17.79;52.11
16595;BME280;8410;52.532;13.336;2023-05-10T07:04:09;100627.44;;;17.98;52.43
16595;BME280;8410;52.532;13.336;2023-05-10T07:06:37;100634.66;;;17.35;53.61
16595;BME280;8410;52.532;13.336;2023-05-10T07:09:04;100626.78;;;17.38;53.45
16595;BME280;8410;52.532;13.336;2023-05-10T07:11:35;100628.97;;;18.10;52.82
16595;BME280;8410;52.532;13.336;2023-05-10T07:14:03;100625.03;;;18.30;51.64
16595;BME280;8410;52.532;13.336;2023-05-10T07:16:31;100618.94;;;18.32;51.15
16595;BME280;8410;52.532;13.336;2023-05-10T07:18:59;100614.50;;;17.95;52.62
16595;BME280;8410;52.532;13.336;2023-05-10T07:21:26;100607.53;;;18.36;51.57
16595;BME280;8410;52.532;13.336;2023-05-10T07:23:55;100604.91;;;17.97;51.74
16595;BME280;8410;52.532;13.336;2023-05-10T07:26:25;100610.41;;;17.81;52.57
16595;BME280;8410;52.532;13.336;2023-05-10T07:28:53;100617.38;;;18.23;52.08
16595;BME280;8410;52.532;13.336;2023-05-10T07:31:21;100608.13;;;18.10;51.58
16595;BME280;8410;52.532;13.336;2023-05-10T07:33:48;100618.25;;;17.77;52.67
16595;BME280;8410;52.532;13.336;2023-05-10T07:36:16;100615.88;;;18.11;52.32
16595;BME280;8410;52.532;13.336;2023-05-10T07:38:43;100616.13;;;18.41;51.63
16595;BME280;8410;52.532;13.336;2023-05-10T07:41:11;100605.53;;;18.48;51.16
16595;BME280;8410;52.532;13.336;2023-05-10T07:43:38;100612.22;;;18.99;51.27
16595;BME280;8410;52.532;13.336;2023-05-10T07:46:07;100609.69;;;18.94;51.24
16595;BME280;8410;52.532;13.336;2023-05-10T07:48:36;100607.56;;;18.73;52.21
16595;BME280;8410;52.532;13.336;2023-05-10T07:51:04;100598.53;;;19.56;53.92
16595;BME280;8410;52.532;13.336;2023-05-10T07:53:32;100603.19;;;19.45;58.72
16595;BME280;8410;52.532;13.336;2023-05-10T07:56:20;100603.69;;;19.92;54.96
16595;BME280;8410;52.532;13.336;2023-05-10T07:58:48;100604.75;;;19.52;52.84
16595;BME280;8410;52.532;13.336;2023-05-10T08:01:17;100610.16;;;19.46;51.50
16595;BME280;8410;52.532;13.336;2023-05-10T08:03:45;100604.03;;;19.80;53.64
16595;BME280;8410;52.532;13.336;2023-05-10T08:06:12;100609.34;;;20.08;51.53
16595;BME280;8410;52.532;13.336;2023-05-10T08:08:40;100605.41;;;19.28;55.01
16595;BME280;8410;52.532;13.336;2023-05-10T08:11:08;100601.69;;;20.32;54.59
16595;BME280;8410;52.532;13.336;2023-05-10T08:13:35;100606.56;;;20.13;52.65
16595;BME280;8410;52.532;13.336;2023-05-10T08:16:03;100606.53;;;20.44;53.73
16595;BME280;8410;52.532;13.336;2023-05-10T08:18:32;100603.03;;;20.73;51.14
16595;BME280;8410;52.532;13.336;2023-05-10T08:20:59;100601.50;;;20.94;51.04
16595;BME280;8410;52.532;13.336;2023-05-10T08:23:27;100606.47;;;20.75;47.66
16595;BME280;8410;52.532;13.336;2023-05-10T08:25:54;100604.66;;;20.77;47.98
16595;BME280;8410;52.532;13.336;2023-05-10T08:28:22;100601.19;;;20.19;47.58
16595;BME280;8410;52.532;13.336;2023-05-10T08:30:49;100602.38;;;20.37;48.01
16595;BME280;8410;52.532;13.336;2023-05-10T08:33:17;100608.91;;;19.92;49.08
16595;BME280;8410;52.532;13.336;2023-05-10T08:35:46;100605.25;;;20.29;48.13
16595;BME280;8410;52.532;13.336;2023-05-10T08:38:14;100595.28;;;20.12;48.88
16595;BME280;8410;52.532;13.336;2023-05-10T08:40:43;100598.75;;;20.42;48.26
16595;BME280;8410;52.532;13.336;2023-05-10T08:43:11;100604.38;;;20.28;48.94
16595;BME280;8410;52.532;13.336;2023-05-10T08:45:40;100604.78;;;20.15;48.58
16595;BME280;8410;52.532;13.336;2023-05-10T08:48:09;100609.16;;;19.83;49.07
16595;BME280;8410;52.532;13.336;2023-05-10T08:50:38;100606.31;;;19.92;48.84
16595;BME280;8410;52.532;13.336;2023-05-10T08:53:10;100606.38;;;20.78;47.33
16595;BME280;8410;52.532;13.336;2023-05-10T08:55:39;100605.66;;;20.73;48.16
16595;BME280;8410;52.532;13.336;2023-05-10T08:58:09;100614.38;;;20.44;47.30
16595;BME280;8410;52.532;13.336;2023-05-10T09:00:37;100607.41;;;20.73;48.17
16595;BME280;8410;52.532;13.336;2023-05-10T09:03:05;100604.72;;;21.02;48.27
16595;BME280;8410;52.532;13.336;2023-05-10T09:05:33;100603.06;;;20.43;48.40
16595;BME280;8410;52.532;13.336;2023-05-10T09:08:00;100604.25;;;20.89;47.74
16595;BME280;8410;52.532;13.336;2023-05-10T09:10:30;100611.50;;;21.08;46.76
16595;BME280;8410;52.532;13.336;2023-05-10T09:12:58;100607.53;;;20.96;47.73
16595;BME280;8410;52.532;13.336;2023-05-10T09:15:26;100602.81;;;20.79;48.00
16595;BME280;8410;52.532;13.336;2023-05-10T09:17:54;100611.00;;;20.97;47.47
16595;BME280;8410;52.532;13.336;2023-05-10T09:20:22;100609.31;;;20.96;48.04
16595;BME280;8410;52.532;13.336;2023-05-10T09:22:49;100611.22;;;20.90;47.19
16595;BME280;8410;52.532;13.336;2023-05-10T09:25:17;100615.28;;;20.99;47.25
16595;BME280;8410;52.532;13.336;2023-05-10T09:27:47;100615.81;;;21.09;47.12
16595;BME280;8410;52.532;13.336;2023-05-10T09:30:16;100607.09;;;21.35;47.22
16595;BME280;8410;52.532;13.336;2023-05-10T09:32:45;100610.09;;;20.98;47.38
16595;BME280;8410;52.532;13.336;2023-05-10T09:35:14;100607.34;;;21.27;47.16
16595;BME280;8410;52.532;13.336;2023-05-10T09:37:44;100613.59;;;21.50;47.11
16595;BME280;8410;52.532;13.336;2023-05-10T09:40:13;100615.88;;;20.81;47.97
16595;BME280;8410;52.532;13.336;2023-05-10T09:42:43;100614.50;;;21.22;48.82
16595;BME280;8410;52.532;13.336;2023-05-10T09:45:19;100615.88;;;21.59;47.38
16595;BME280;8410;52.532;13.336;2023-05-10T09:47:47;100607.47;;;21.24;47.85
16595;BME280;8410;52.532;13.336;2023-05-10T09:50:14;100623.31;;;21.20;47.15
16595;BME280;8410;52.532;13.336;2023-05-10T09:52:47;100609.69;;;21.62;47.43
16595;BME280;8410;52.532;13.336;2023-05-10T09:55:15;100625.28;;;21.13;47.46
16595;BME280;8410;52.532;13.336;2023-05-10T09:57:43;100616.94;;;21.55;46.89
16595;BME280;8410;52.532;13.336;2023-05-10T10:00:19;100621.16;;;21.32;46.50
16595;BME280;8410;52.532;13.336;2023-05-10T10:02:48;100620.66;;;20.95;48.05
16595;BME280;8410;52.532;13.336;2023-05-10T10:05:21;100612.28;;;21.63;46.97
16595;BME280;8410;52.532;13.336;2023-05-10T10:07:55;100623.16;;;21.51;46.99
16595;BME280;8410;52.532;13.336;2023-05-10T10:10:24;100612.22;;;21.13;47.63
16595;BME280;8410;52.532;13.336;2023-05-10T10:12:51;100623.53;;;21.13;47.87
16595;BME280;8410;52.532;13.336;2023-05-10T10:15:21;100618.84;;;21.23;47.18
16595;BME280;8410;52.532;13.336;2023-05-10T10:17:50;100626.00;;;21.18;47.15
16595;BME280;8410;52.532;13.336;2023-05-10T10:20:19;100613.97;;;21.64;46.23
16595;BME280;8410;52.532;13.336;2023-05-10T10:22:47;100613.41;;;21.29;47.36
16595;BME280;8410;52.532;13.336;2023-05-10T10:25:16;100599.31;;;22.31;45.96
16595;BME280;8410;52.532;13.336;2023-05-10T10:27:48;100607.97;;;22.09;45.96
16595;BME280;8410;52.532;13.336;2023-05-10T10:30:23;100604.53;;;21.84;46.95
16595;BME280;8410;52.532;13.336;2023-05-10T10:33:17;100602.44;;;22.17;45.63
16595;BME280;8410;52.532;13.336;2023-05-10T10:35:55;100599.69;;;22.21;45.34
16595;BME280;8410;52.532;13.336;2023-05-10T10:38:25;100600.56;;;21.73;46.52
16595;BME280;8410;52.532;13.336;2023-05-10T10:41:02;100600.56;;;22.44;49.31
16595;BME280;8410;52.532;13.336;2023-05-10T10:43:29;100598.41;;;22.08;47.19
16595;BME280;8410;52.532;13.336;2023-05-10T10:46:10;100602.91;;;22.50;49.96
16595;BME280;8410;52.532;13.336;2023-05-10T10:48:39;100599.69;;;22.21;48.92
16595;BME280;8410;52.532;13.336;2023-05-10T10:51:07;100598.97;;;22.62;50.80
16595;BME280;8410;52.532;13.336;2023-05-10T10:53:38;100591.09;;;22.16;47.15
16595;BME280;8410;52.532;13.336;2023-05-10T10:56:07;100607.56;;;21.96;46.97
16595;BME280;8410;52.532;13.336;2023-05-10T10:58:36;100602.50;;;22.83;46.90
16595;BME280;8410;52.532;13.336;2023-05-10T11:01:15;100594.03;;;23.19;44.74
16595;BME280;8410;52.532;13.336;2023-05-10T11:04:17;100592.25;;;22.55;44.83
16595;BME280;8410;52.532;13.336;2023-05-10T11:06:45;100590.94;;;22.21;45.72
16595;BME280;8410;52.532;13.336;2023-05-10T11:09:13;100595.41;;;22.19;45.59
16595;BME280;8410;52.532;13.336;2023-05-10T11:11:48;100586.81;;;22.81;44.16
16595;BME280;8410;52.532;13.336;2023-05-10T11:14:19;100600.16;;;22.53;44.82
16595;BME280;8410;52.532;13.336;2023-05-10T11:16:48;100593.31;;;22.93;43.97
16595;BME280;8410;52.532;13.336;2023-05-10T11:19:17;100592.31;;;22.53;44.62
16595;BME280;8410;52.532;13.336;2023-05-10T11:21:47;100595.81;;;22.54;44.27
16595;BME280;8410;52.532;13.336;2023-05-10T11:24:16;100589.63;;;22.77;44.33
16595;BME280;8410;52.532;13.336;2023-05-10T11:26:44;100580.22;;;23.15;44.31
16595;BME280;8410;52.532;13.336;2023-05-10T11:29:12;100591.75;;;22.45;44.89
16595;BME280;8410;52.532;13.336;2023-05-10T11:31:43;100596.09;;;22.46;44.86
16595;BME280;8410;52.532;13.336;2023-05-10T11:34:24;100593.84;;;22.81;44.21
16595;BME280;8410;52.532;13.336;2023-05-10T11:36:53;100590.66;;;22.29;44.69
16595;BME280;8410;52.532;13.336;2023-05-10T11:39:21;100589.38;;;22.83;44.13
16595;BME280;8410;52.532;13.336;2023-05-10T11:41:49;100589.19;;;22.87;43.42
16595;BME280;8410;52.532;13.336;2023-05-10T11:44:16;100580.38;;;23.51;42.92
16595;BME280;8410;52.532;13.336;2023-05-10T11:46:44;100583.38;;;23.01;43.40
16595;BME280;8410;52.532;13.336;2023-05-10T11:49:12;100585.16;;;22.79;44.12
16595;BME280;8410;52.532;13.336;2023-05-10T11:51:41;100588.34;;;22.87;44.10
16595;BME280;8410;52.532;13.336;2023-05-10T11:54:10;100581.56;;;23.24;43.34
16595;BME280;8410;52.532;13.336;2023-05-10T11:56:39;100582.94;;;22.90;43.08
16595;BME280;8410;52.532;13.336;2023-05-10T11:59:07;100586.66;;;23.28;42.50
16595;BME280;8410;52.532;13.336;2023-05-10T12:01:35;100579.97;;;23.61;41.82
16595;BME280;8410;52.532;13.336;2023-05-10T12:04:03;100582.34;;;23.67;41.75
16595;BME280;8410;52.532;13.336;2023-05-10T12:06:32;100580.78;;;23.42;42.20
16595;BME280;8410;52.532;13.336;2023-05-10T12:09:06;100585.38;;;23.17;42.90
16595;BME280;8410;52.532;13.336;2023-05-10T12:11:37;100588.94;;;23.16;42.99
16595;BME280;8410;52.532;13.336;2023-05-10T12:14:09;100588.25;;;23.51;42.50
16595;BME280;8410;52.532;13.336;2023-05-10T12:16:36;100587.19;;;23.76;41.66
16595;BME280;8410;52.532;13.336;2023-05-10T12:19:04;100587.41;;;23.30;41.93
16595;BME280;8410;52.532;13.336;2023-05-10T12:21:32;100599.16;;;22.57;43.32
16595;BME280;8410;52.532;13.336;2023-05-10T12:24:01;100589.78;;;22.94;42.75
16595;BME280;8410;52.532;13.336;2023-05-10T12:26:32;100595.22;;;23.11;42.52
16595;BME280;8410;52.532;13.336;2023-05-10T12:29:12;100589.97;;;23.52;42.05
16595;BME280;8410;52.532;13.336;2023-05-10T12:31:53;100599.03;;;23.45;42.17
16595;BME280;8410;52.532;13.336;2023-05-10T12:34:26;100600.72;;;23.05;42.94
16595;BME280;8410;52.532;13.336;2023-05-10T12:36:54;100586.69;;;23.27;42.78
16595;BME280;8410;52.532;13.336;2023-05-10T12:39:22;100593.25;;;23.58;41.65
16595;BME280;8410;52.532;13.336;2023-05-10T12:41:51;100595.72;;;23.81;41.67
16595;BME280;8410;52.532;13.336;2023-05-10T12:44:18;100595.16;;;23.54;41.60
16595;BME280;8410;52.532;13.336;2023-05-10T12:46:45;100604.34;;;23.44;41.77
16595;BME280;8410;52.532;13.336;2023-05-10T12:49:13;100601.78;;;23.83;41.57
16595;BME280;8410;52.532;13.336;2023-05-10T12:51:41;100598.09;;;23.46;42.23
16595;BME280;8410;52.532;13.336;2023-05-10T12:54:08;100592.06;;;23.85;42.65
16595;BME280;8410;52.532;13.336;2023-05-10T12:56:36;100593.94;;;23.82;41.90
16595;BME280;8410;52.532;13.336;2023-05-10T12:59:05;100601.25;;;23.95;42.29
16595;BME280;8410;52.532;13.336;2023-05-10T13:01:32;100603.16;;;23.30;43.83
16595;BME280;8410;52.532;13.336;2023-05-10T13:04:00;100597.72;;;23.55;43.45